Time;durP1;ratioP1;P1;durP2;ratioP2;P2;SDS_P1;SDS_P2;PMS_P1;PMS_P2;Temp;Humidity;BMP_temperature;BMP_pressure;BME280_temperature;BME280_humidity;BME280_pressure;Samples;Min_cycle;Max_cycle;Signal;HPM_P1;HPM_P2
2023/03/20 00:00:24;;;;;;;51.63;38.75;;;;;;;1.31;100.00;101498.22;5048894;28;20045;-80
2023/03/20 00:02:51;;;;;;;58.40;45.90;;;;;;;1.21;100.00;101495.53;5048606;28;20572;-81
2023/03/20 00:05:22;;;;;;;52.33;41.30;;;;;;;1.17;100.00;101486.25;5047798;28;20102;-81
2023/03/20 00:07:49;;;;;;;55.45;44.40;;;;;;;1.58;100.00;101490.69;5044361;28;20128;-80
2023/03/20 00:10:17;;;;;;;48.58;37.85;;;;;;;1.11;100.00;101500.66;5045450;28;20055;-81
2023/03/20 00:12:47;;;;;;;56.72;44.58;;;;;;;1.22;100.00;101494.56;5045593;28;20114;-80
2023/03/20 00:15:33;;;;;;;56.63;47.42;;;;;;;0.92;100.00;101492.66;5044652;28;20570;-80
2023/03/20 00:18:00;;;;;;;77.78;53.10;;;;;;;1.07;100.00;101488.78;5046003;28;20076;-81
2023/03/20 00:20:28;;;;;;;74.82;55.13;;;;;;;0.84;100.00;101480.19;5044267;28;20139;-80
2023/03/20 00:22:55;;;;;;;69.28;53.45;;;;;;;0.95;100.00;101481.94;5051811;28;20044;-81
2023/03/20 00:25:24;;;;;;;68.38;48.42;;;;;;;1.18;100.00;101464.38;5043410;28;20498;-80
2023/03/20 00:27:51;;;;;;;65.28;49.58;;;;;;;1.03;100.00;101470.84;5043102;28;20111;-80
2023/03/20 00:30:22;;;;;;;65.10;50.03;;;;;;;0.63;100.00;101461.00;5044258;28;20180;-80
2023/03/20 00:32:50;;;;;;;71.60;50.05;;;;;;;0.83;100.00;101465.47;5044122;28;20137;-80
2023/03/20 00:35:20;;;;;;;69.78;48.78;;;;;;;0.83;100.00;101460.22;5051315;28;20099;-80
2023/03/20 00:37:48;;;;;;;62.47;46.67;;;;;;;0.97;100.00;101453.88;5044334;28;20052;-80
2023/03/20 00:40:15;;;;;;;58.47;43.60;;;;;;;0.64;100.00;101441.75;5042813;28;20056;-81
2023/03/20 00:42:43;;;;;;;59.10;44.67;;;;;;;0.75;100.00;101452.16;5042312;28;20056;-80
2023/03/20 00:45:13;;;;;;;68.05;49.58;;;;;;;0.81;100.00;101446.44;5042823;28;20588;-80
2023/03/20 00:47:41;;;;;;;66.72;51.22;;;;;;;0.76;100.00;101446.00;5044319;28;20057;-80
2023/03/20 00:50:15;;;;;;;73.07;51.83;;;;;;;0.75;100.00;101446.94;5042710;28;20458;-80
2023/03/20 00:52:43;;;;;;;106.93;69.85;;;;;;;0.58;100.00;101432.63;5044473;28;20053;-80
2023/03/20 00:55:12;;;;;;;70.18;54.22;;;;;;;0.69;100.00;101443.03;5041870;28;20132;-80
2023/03/20 00:57:43;;;;;;;68.90;46.95;;;;;;;0.66;100.00;101440.66;5049633;28;20142;-80
2023/03/20 01:00:24;;;;;;;66.18;48.80;;;;;;;0.62;100.00;101441.03;5044775;28;20114;-81
2023/03/20 01:02:52;;;;;;;64.65;47.00;;;;;;;0.58;100.00;101435.22;5038701;28;20053;-80
2023/03/20 01:05:19;;;;;;;69.05;48.25;;;;;;;0.72;100.00;101448.97;5050810;28;20055;-81
2023/03/20 01:07:46;;;;;;;87.00;58.92;;;;;;;0.52;100.00;101440.13;5044220;28;20049;-80
2023/03/20 01:10:14;;;;;;;92.47;61.15;;;;;;;0.28;100.00;101442.91;5044975;28;20046;-80
2023/03/20 01:12:42;;;;;;;161.38;108.90;;;;;;;0.34;100.00;101431.97;5049489;28;20553;-80
2023/03/20 01:15:19;;;;;;;184.70;115.70;;;;;;;0.43;100.00;101431.25;5042983;28;20584;-80
2023/03/20 01:17:46;;;;;;;130.10;84.32;;;;;;;0.37;100.00;101434.34;5042973;28;20053;-80
2023/03/20 01:20:18;;;;;;;106.72;72.25;;;;;;;0.23;100.00;101444.09;5043687;28;20052;-80
2023/03/20 01:22:45;;;;;;;65.70;49.92;;;;;;;0.38;100.00;101428.16;5044757;28;20107;-80
2023/03/20 01:25:12;;;;;;;91.20;60.35;;;;;;;0.31;100.00;101427.81;5040356;28;20107;-80
2023/03/20 01:27:40;;;;;;;70.43;52.15;;;;;;;0.35;100.00;101437.06;5041308;28;20084;-80
2023/03/20 01:30:17;;;;;;;84.07;66.78;;;;;;;0.15;100.00;101427.34;5042243;28;20053;-80
2023/03/20 01:32:45;;;;;;;91.55;67.05;;;;;;;0.22;100.00;101420.69;5047285;28;20128;-80
2023/03/20 01:35:14;;;;;;;78.78;58.42;;;;;;;0.13;100.00;101429.28;5052650;28;20072;-80
2023/03/20 01:37:41;;;;;;;79.57;53.22;;;;;;;-0.01;100.00;101425.94;5045089;28;20131;-81
2023/03/20 01:40:17;;;;;;;79.43;56.78;;;;;;;0.14;100.00;101423.91;5040465;28;20052;-81
2023/03/20 01:42:46;;;;;;;73.60;52.50;;;;;;;0.29;100.00;101421.88;5048642;28;20490;-80
2023/03/20 01:45:19;;;;;;;69.55;48.40;;;;;;;0.21;100.00;101427.72;5043652;28;20044;-80
2023/03/20 01:47:46;;;;;;;59.83;49.40;;;;;;;0.45;100.00;101421.47;5042100;28;20107;-80
2023/03/20 01:50:28;;;;;;;65.32;56.08;;;;;;;0.42;100.00;101427.78;5044447;28;20573;-80
2023/03/20 01:53:01;;;;;;;57.40;43.45;;;;;;;0.43;100.00;101423.41;5040786;28;20049;-80
2023/03/20 01:55:29;;;;;;;62.00;42.22;;;;;;;0.38;100.00;101422.94;5043226;28;20049;-81
2023/03/20 01:58:02;;;;;;;60.55;48.42;;;;;;;0.33;100.00;101425.88;5046764;28;20103;-80
2023/03/20 02:00:29;;;;;;;63.40;55.10;;;;;;;0.41;100.00;101420.06;5033442;28;20107;-80
2023/03/20 02:02:57;;;;;;;65.38;51.85;;;;;;;0.23;100.00;101425.78;5043534;28;20044;-80
2023/03/20 02:05:27;;;;;;;62.10;51.50;;;;;;;0.34;100.00;101427.56;5058729;28;20059;-80
2023/03/20 02:08:04;;;;;;;92.18;60.40;;;;;;;0.55;100.00;101430.25;5043805;28;20523;-80
2023/03/20 02:10:31;;;;;;;97.70;60.05;;;;;;;0.62;100.00;101425.34;5043614;28;20079;-81
2023/03/20 02:13:00;;;;;;;115.78;70.85;;;;;;;0.85;100.00;101424.31;5048247;28;20037;-80
2023/03/20 02:15:27;;;;;;;81.85;58.80;;;;;;;0.75;100.00;101419.97;5047130;28;20045;-81
2023/03/20 02:17:54;;;;;;;76.65;50.90;;;;;;;0.80;100.00;101421.25;5046315;28;20049;-80
2023/03/20 02:20:45;;;;;;;61.15;44.83;;;;;;;0.65;100.00;101423.31;5046383;28;20057;-80
2023/03/20 02:23:45;;;;;;;63.05;45.30;;;;;;;0.54;100.00;101420.72;5045582;28;20051;-80
2023/03/20 02:26:24;;;;;;;56.45;43.33;;;;;;;0.73;100.00;101421.84;5049119;28;20045;-80
2023/03/20 02:29:35;;;;;;;59.83;49.08;;;;;;;0.50;100.00;101418.50;5045522;28;20111;-80
2023/03/20 02:32:46;;;;;;;65.55;49.03;;;;;;;0.81;100.00;101427.31;5046024;28;20052;-80
2023/03/20 02:35:46;;;;;;;57.13;44.20;;;;;;;0.52;100.00;101435.72;5053791;28;20099;-80
2023/03/20 02:38:33;;;;;;;60.72;41.70;;;;;;;0.66;100.00;101432.00;5026374;28;20065;-80
2023/03/20 02:41:08;;;;;;;60.65;44.03;;;;;;;0.44;100.00;101427.66;5045714;28;20435;-80
2023/03/20 02:43:45;;;;;;;60.72;42.05;;;;;;;0.55;100.00;101426.81;5045631;28;20092;-80
2023/03/20 02:46:24;;;;;;;56.40;41.17;;;;;;;0.35;100.00;101420.56;5046228;28;20041;-80
2023/03/20 02:48:56;;;;;;;59.13;40.88;;;;;;;0.64;100.00;101419.06;5045107;28;20053;-80
2023/03/20 02:51:35;;;;;;;58.70;42.65;;;;;;;0.69;100.00;101418.66;5045004;28;20050;-80
2023/03/20 02:54:10;;;;;;;60.40;45.78;;;;;;;0.91;100.00;101423.00;5049035;28;20458;-81
2023/03/20 02:56:47;;;;;;;60.38;49.92;;;;;;;0.56;100.00;101404.94;5045481;28;20050;-80
2023/03/20 02:59:26;;;;;;;62.03;46.47;;;;;;;0.53;100.00;101410.41;5044837;28;20119;-80
2023/03/20 03:04:33;;;;;;;62.47;44.05;;;;;;;0.26;100.00;101408.22;4373387;22;20049;-81
2023/03/20 03:07:02;;;;;;;61.47;49.08;;;;;;;0.27;100.00;101404.66;5050560;28;20123;-82
2023/03/20 03:09:36;;;;;;;62.45;49.80;;;;;;;0.29;100.00;101403.56;5053162;28;20056;-81
2023/03/20 03:12:09;;;;;;;59.33;50.95;;;;;;;0.18;100.00;101403.59;5047619;28;20056;-81
2023/03/20 03:14:39;;;;;;;56.92;43.00;;;;;;;0.18;100.00;101399.22;5047607;28;20080;-81
2023/03/20 03:17:08;;;;;;;61.22;44.53;;;;;;;0.55;100.00;101406.72;5055514;28;20514;-81
2023/03/20 03:19:38;;;;;;;57.78;43.60;;;;;;;0.32;100.00;101390.25;5050489;28;20058;-82
2023/03/20 03:22:05;;;;;;;58.63;48.30;;;;;;;0.32;100.00;101398.09;5049277;28;20065;-81
2023/03/20 03:24:35;;;;;;;57.38;41.60;;;;;;;0.39;100.00;101403.66;5053123;28;20053;-81
2023/03/20 03:27:13;;;;;;;63.20;49.63;;;;;;;0.79;100.00;101398.69;5047223;28;20055;-81
2023/03/20 03:29:41;;;;;;;62.38;46.83;;;;;;;1.05;100.00;101400.91;5044436;28;20137;-81
2023/03/20 03:32:23;;;;;;;60.13;45.67;;;;;;;1.10;100.00;101404.00;5047481;28;20053;-81
2023/03/20 03:34:50;;;;;;;67.25;54.92;;;;;;;0.89;100.00;101401.34;5054840;28;20049;-81
2023/03/20 03:37:28;;;;;;;57.53;45.58;;;;;;;0.76;100.00;101391.06;5054476;28;20073;-81
2023/03/20 03:40:05;;;;;;;59.65;42.05;;;;;;;1.11;100.00;101400.41;5053222;28;20509;-81
2023/03/20 03:42:38;;;;;;;62.33;42.03;;;;;;;1.12;100.00;101396.81;5054190;28;20061;-81
2023/03/20 03:45:10;;;;;;;61.15;44.80;;;;;;;1.03;100.00;101393.22;5053415;28;20057;-81
2023/03/20 03:47:41;;;;;;;71.55;46.47;;;;;;;1.01;100.00;101400.34;5052587;28;20107;-81
2023/03/20 03:50:14;;;;;;;59.28;45.65;;;;;;;1.10;100.00;101398.75;5051429;28;20461;-81
2023/03/20 03:52:44;;;;;;;58.72;43.15;;;;;;;0.66;100.00;101398.00;5059348;28;20068;-81
2023/03/20 03:55:17;;;;;;;58.40;41.47;;;;;;;0.86;100.00;101402.44;5047234;28;20163;-81
2023/03/20 03:57:47;;;;;;;55.70;41.85;;;;;;;0.77;100.00;101410.22;5053332;28;20037;-81
2023/03/20 04:00:19;;;;;;;58.33;42.80;;;;;;;0.95;100.00;101400.84;5061302;28;20040;-81
2023/03/20 04:02:49;;;;;;;56.20;40.42;;;;;;;1.03;100.00;101402.81;5050032;28;20469;-81
2023/03/20 04:05:19;;;;;;;56.90;43.03;;;;;;;1.11;100.00;101410.88;5058584;28;20130;-81
2023/03/20 04:07:46;;;;;;;58.92;40.88;;;;;;;0.63;100.00;101400.84;5051606;28;20129;-81
2023/03/20 04:10:15;;;;;;;55.00;36.47;;;;;;;0.47;100.00;101397.84;5052550;28;20049;-81
2023/03/20 04:12:44;;;;;;;56.05;40.75;;;;;;;0.71;100.00;101400.25;5052451;28;20426;-82
2023/03/20 04:15:11;;;;;;;53.65;35.58;;;;;;;0.32;100.00;101399.88;5050422;28;20072;-81
2023/03/20 04:17:38;;;;;;;59.25;42.03;;;;;;;0.79;100.00;101406.53;5051130;28;20046;-81
2023/03/20 04:20:07;;;;;;;49.58;35.47;;;;;;;0.44;100.00;101399.72;5055695;28;20119;-81
2023/03/20 04:22:33;;;;;;;56.30;37.40;;;;;;;0.43;100.00;101410.31;5052044;28;20132;-81
2023/03/20 04:25:00;;;;;;;50.00;35.90;;;;;;;0.22;100.00;101402.41;5051874;28;20048;-81
2023/03/20 04:27:29;;;;;;;51.55;37.38;;;;;;;0.27;100.00;101402.03;5048972;28;20048;-81
2023/03/20 04:29:55;;;;;;;51.08;38.15;;;;;;;0.05;100.00;101408.97;5044064;28;20045;-81
2023/03/20 04:32:22;;;;;;;53.80;38.13;;;;;;;0.41;100.00;101404.38;5046588;28;20058;-81
2023/03/20 04:34:49;;;;;;;70.40;59.25;;;;;;;0.38;100.00;101407.25;5054499;28;20560;-81
2023/03/20 04:37:16;;;;;;;77.47;63.45;;;;;;;0.68;100.00;101403.94;5047458;28;20088;-81
2023/03/20 04:39:42;;;;;;;72.47;58.70;;;;;;;0.64;100.00;101405.97;5049805;28;20060;-81
2023/03/20 04:42:09;;;;;;;74.85;63.30;;;;;;;0.82;100.00;101408.88;5050932;28;20050;-82
2023/03/20 04:44:37;;;;;;;69.05;58.50;;;;;;;1.01;100.00;101413.44;5049821;28;20132;-81
2023/03/20 04:47:04;;;;;;;69.05;61.47;;;;;;;1.12;100.00;101421.22;5047507;28;20108;-81
2023/03/20 04:49:31;;;;;;;71.35;60.20;;;;;;;1.20;100.00;101419.75;5054653;28;20056;-81
2023/03/20 04:51:57;;;;;;;72.32;62.28;;;;;;;1.15;100.00;101420.16;5055024;28;20041;-82
2023/03/20 04:54:24;;;;;;;83.93;60.85;;;;;;;1.28;100.00;101430.41;5055074;28;20041;-82
2023/03/20 04:56:51;;;;;;;74.68;63.95;;;;;;;1.26;100.00;101427.09;5049916;28;20505;-82
2023/03/20 04:59:18;;;;;;;86.63;75.05;;;;;;;1.29;100.00;101421.59;5050750;28;20045;-82
2023/03/20 05:01:46;;;;;;;61.65;43.92;;;;;;;1.51;100.00;101434.56;5053414;28;20118;-82
2023/03/20 05:04:13;;;;;;;63.28;45.25;;;;;;;1.72;100.00;101428.44;5055902;28;20049;-82
2023/03/20 05:06:40;;;;;;;58.67;47.97;;;;;;;1.63;100.00;101432.66;5047403;28;20045;-81
2023/03/20 05:09:07;;;;;;;57.33;42.47;;;;;;;1.82;100.00;101432.78;5058067;28;20071;-82
2023/03/20 05:11:34;;;;;;;59.22;45.58;;;;;;;1.95;100.00;101436.97;5056486;28;20418;-81
2023/03/20 05:14:00;;;;;;;63.97;44.20;;;;;;;2.03;100.00;101443.22;5056436;28;20056;-82
2023/03/20 05:16:27;;;;;;;61.63;43.10;;;;;;;2.08;100.00;101442.78;5053912;28;20049;-82
2023/03/20 05:18:55;;;;;;;54.90;41.05;;;;;;;2.11;100.00;101447.78;5055293;28;20045;-81
2023/03/20 05:21:23;;;;;;;58.55;40.22;;;;;;;2.20;100.00;101443.53;5027005;28;20110;-81
2023/03/20 05:23:50;;;;;;;54.45;42.28;;;;;;;2.22;100.00;101450.28;5001396;28;20136;-81
2023/03/20 05:26:17;;;;;;;57.22;40.65;;;;;;;2.37;100.00;101461.25;5046484;28;20052;-82
2023/03/20 05:28:43;;;;;;;55.00;42.10;;;;;;;2.48;100.00;101461.13;5056204;28;20538;-82
2023/03/20 05:31:10;;;;;;;54.00;41.15;;;;;;;2.57;100.00;101451.59;5050151;28;20049;-81
2023/03/20 05:33:37;;;;;;;63.92;43.85;;;;;;;2.63;100.00;101456.34;5050443;28;20056;-82
2023/03/20 05:36:06;;;;;;;61.65;42.35;;;;;;;2.77;100.00;101462.13;5059100;28;20048;-82
2023/03/20 05:38:33;;;;;;;65.32;43.80;;;;;;;2.85;100.00;101460.50;5055119;28;20506;-82
2023/03/20 05:41:01;;;;;;;59.60;43.55;;;;;;;3.08;100.00;101468.09;5056526;28;20045;-82
2023/03/20 05:43:28;;;;;;;54.67;42.33;;;;;;;3.18;100.00;101464.50;5056856;28;20072;-82
2023/03/20 05:45:54;;;;;;;55.30;46.38;;;;;;;3.28;100.00;101461.84;5055914;28;20080;-82
2023/03/20 05:48:21;;;;;;;55.83;45.42;;;;;;;3.15;100.00;101470.03;5059972;28;20045;-82
2023/03/20 05:50:48;;;;;;;55.38;47.22;;;;;;;3.45;100.00;101478.72;5059123;28;20045;-82
2023/03/20 05:53:16;;;;;;;55.75;46.00;;;;;;;3.74;100.00;101469.91;5058467;28;20050;-82
2023/03/20 05:55:44;;;;;;;53.75;45.90;;;;;;;3.78;100.00;101466.03;5062107;28;20049;-82
2023/03/20 05:58:11;;;;;;;51.55;44.50;;;;;;;3.95;100.00;101469.72;5063819;28;20053;-82
2023/03/20 06:00:38;;;;;;;54.47;42.20;;;;;;;4.27;100.00;101459.63;5064904;28;20040;-82
2023/03/20 06:03:06;;;;;;;55.28;46.35;;;;;;;4.17;100.00;101460.63;5060846;28;20102;-82
2023/03/20 06:05:33;;;;;;;62.70;44.80;;;;;;;4.39;100.00;101462.88;5061214;28;20053;-82
2023/03/20 06:08:00;;;;;;;58.58;44.63;;;;;;;4.41;100.00;101452.19;5064062;28;20040;-82
2023/03/20 06:10:29;;;;;;;61.85;48.97;;;;;;;4.51;100.00;101445.91;5054213;28;20061;-82
2023/03/20 06:12:56;;;;;;;54.50;44.67;;;;;;;4.81;100.00;101442.09;5065979;28;20108;-82
2023/03/20 06:15:23;;;;;;;49.40;44.15;;;;;;;4.88;100.00;101436.22;5062552;28;20101;-82
2023/03/20 06:17:50;;;;;;;53.72;48.28;;;;;;;5.16;100.00;101431.69;5058727;28;20495;-82
2023/03/20 06:20:18;;;;;;;56.25;50.33;;;;;;;5.33;100.00;101430.00;5061081;28;20072;-82
2023/03/20 06:22:45;;;;;;;58.50;51.95;;;;;;;5.33;100.00;101428.19;5064616;28;20049;-82
2023/03/20 06:25:13;;;;;;;59.17;53.17;;;;;;;5.54;100.00;101432.25;5062724;28;20075;-82
2023/03/20 06:27:41;;;;;;;54.90;48.85;;;;;;;5.93;100.00;101430.03;5066717;28;20049;-82
2023/03/20 06:30:09;;;;;;;57.53;50.33;;;;;;;5.82;100.00;101436.41;5062836;28;20123;-83
2023/03/20 06:32:35;;;;;;;55.40;49.13;;;;;;;5.93;100.00;101436.16;5060505;28;20045;-82
2023/03/20 06:35:04;;;;;;;55.08;49.33;;;;;;;6.23;100.00;101431.31;5066855;28;20045;-82
2023/03/20 06:37:31;;;;;;;57.78;51.72;;;;;;;6.66;100.00;101437.38;5060908;28;20118;-82
2023/03/20 06:39:58;;;;;;;59.47;53.50;;;;;;;6.38;100.00;101444.72;5056812;28;20049;-82
2023/03/20 06:42:25;;;;;;;61.95;55.72;;;;;;;6.61;100.00;101440.47;5055210;28;20050;-83
2023/03/20 06:44:53;;;;;;;63.83;57.33;;;;;;;7.33;100.00;101442.50;5058002;28;20048;-82
2023/03/20 06:47:20;;;;;;;65.28;59.15;;;;;;;7.31;100.00;101441.84;5064236;28;20075;-83
2023/03/20 06:49:46;;;;;;;57.50;52.20;;;;;;;7.28;100.00;101447.47;5063726;28;20053;-83
2023/03/20 06:52:16;;;;;;;60.50;54.55;;;;;;;7.57;100.00;101447.75;5070217;28;20049;-82
2023/03/20 06:54:43;;;;;;;59.85;54.15;;;;;;;7.74;100.00;101450.34;5062377;28;20064;-83
2023/03/20 06:57:11;;;;;;;60.63;54.55;;;;;;;7.96;100.00;101446.19;5062036;28;20041;-83
2023/03/20 06:59:37;;;;;;;55.78;49.97;;;;;;;7.97;100.00;101447.81;5060562;28;20049;-82
2023/03/20 07:02:06;;;;;;;56.20;50.80;;;;;;;8.18;100.00;101436.66;5061233;28;20041;-83
2023/03/20 07:04:32;;;;;;;50.90;45.70;;;;;;;7.79;100.00;101450.69;5066413;28;20482;-82
2023/03/20 07:06:59;;;;;;;54.53;49.28;;;;;;;8.34;100.00;101433.09;5063699;28;20045;-83
2023/03/20 07:09:26;;;;;;;59.47;53.97;;;;;;;9.23;100.00;101444.09;5062618;28;20041;-83
2023/03/20 07:11:53;;;;;;;57.33;52.00;;;;;;;9.07;100.00;101429.97;5061928;28;20497;-83
2023/03/20 07:14:21;;;;;;;54.08;48.80;;;;;;;8.97;100.00;101432.06;5068110;28;20052;-83
2023/03/20 07:16:48;;;;;;;55.05;49.85;;;;;;;9.28;100.00;101434.59;5064070;28;20049;-83
2023/03/20 07:19:16;;;;;;;49.15;44.60;;;;;;;9.18;100.00;101429.56;5063437;28;20493;-83
2023/03/20 07:21:43;;;;;;;56.58;51.35;;;;;;;9.26;100.00;101422.53;5064042;28;20071;-83
2023/03/20 07:24:10;;;;;;;56.22;51.13;;;;;;;9.58;100.00;101429.34;5063437;28;20038;-83
2023/03/20 07:26:38;;;;;;;55.28;50.35;;;;;;;9.68;100.00;101429.06;5062759;28;20041;-83
2023/03/20 07:29:05;;;;;;;51.80;46.85;;;;;;;9.35;100.00;101424.13;5063587;28;20072;-83
2023/03/20 07:31:31;;;;;;;47.78;43.28;;;;;;;9.55;100.00;101417.25;5057646;28;20107;-83
2023/03/20 07:33:58;;;;;;;49.80;45.00;;;;;;;9.76;100.00;101419.19;5067482;28;20052;-82
2023/03/20 07:36:27;;;;;;;52.42;47.45;;;;;;;10.17;100.00;101416.06;5066484;28;20053;-83
2023/03/20 07:38:53;;;;;;;49.42;44.55;;;;;;;10.08;100.00;101411.88;5060052;28;20057;-83
2023/03/20 07:41:20;;;;;;;62.38;56.20;;;;;;;10.00;100.00;101417.25;5064048;28;20044;-83
2023/03/20 07:43:47;;;;;;;50.78;46.60;;;;;;;10.12;100.00;101417.63;5063328;28;20076;-83
2023/03/20 07:46:13;;;;;;;52.65;47.92;;;;;;;10.35;100.00;101418.34;5062526;28;20049;-85
2023/03/20 07:48:40;;;;;;;52.42;48.13;;;;;;;10.43;100.00;101428.00;5061883;28;20045;-83
2023/03/20 07:51:07;;;;;;;61.40;56.15;;;;;;;10.96;100.00;101429.38;5065539;28;20075;-83
2023/03/20 07:53:36;;;;;;;53.10;48.70;;;;;;;10.88;100.00;101431.31;5064534;28;20064;-83
2023/03/20 07:56:02;;;;;;;41.97;37.80;;;;;;;10.52;100.00;101427.69;5063887;28;20049;-83
2023/03/20 07:58:29;;;;;;;42.13;37.92;;;;;;;10.22;100.00;101429.56;5064699;28;20057;-83
2023/03/20 08:00:57;;;;;;;53.45;49.08;;;;;;;10.89;100.00;101431.16;5056148;28;20072;-83
2023/03/20 08:03:23;;;;;;;47.28;43.42;;;;;;;10.48;100.00;101428.28;5062955;28;20057;-83
2023/03/20 08:05:50;;;;;;;40.05;36.47;;;;;;;11.24;100.00;101434.69;5067317;28;20048;-83
2023/03/20 08:08:17;;;;;;;46.25;42.20;;;;;;;11.21;100.00;101431.63;5062226;28;20060;-83
2023/03/20 08:10:45;;;;;;;49.50;45.83;;;;;;;11.59;100.00;101439.22;5063277;28;20041;-83
2023/03/20 08:13:11;;;;;;;46.83;42.88;;;;;;;11.97;100.00;101439.69;5064211;28;20037;-83
2023/03/20 08:15:38;;;;;;;46.17;42.17;;;;;;;11.55;100.00;101430.81;5065097;28;20045;-83
2023/03/20 08:18:05;;;;;;;39.65;36.20;;;;;;;11.23;100.00;101434.91;5064751;28;20064;-83
2023/03/20 08:20:32;;;;;;;39.72;36.17;;;;;;;11.32;100.00;101436.41;5062911;28;20080;-83
2023/03/20 08:22:59;;;;;;;43.72;39.38;;;;;;;12.36;100.00;101438.22;5064492;28;20478;-83
2023/03/20 08:25:25;;;;;;;37.45;33.85;;;;;;;12.24;100.00;101435.31;5064904;28;20045;-83
2023/03/20 08:27:54;;;;;;;39.40;35.55;;;;;;;12.13;100.00;101438.53;5063273;28;20103;-83
2023/03/20 08:30:21;;;;;;;39.80;35.92;;;;;;;12.87;100.00;101428.91;5063526;28;20056;-83
2023/03/20 08:32:47;;;;;;;37.50;33.75;;;;;;;12.87;100.00;101431.56;5062887;28;20049;-83
2023/03/20 08:35:14;;;;;;;36.80;33.17;;;;;;;13.09;100.00;101437.53;5067372;28;20045;-86
2023/03/20 08:37:41;;;;;;;49.35;42.22;;;;;;;12.90;100.00;101426.66;5063833;28;20063;-83
2023/03/20 08:40:09;;;;;;;45.78;41.35;;;;;;;13.25;100.00;101435.31;5065535;28;20040;-83
2023/03/20 08:42:36;;;;;;;54.47;44.92;;;;;;;13.10;100.00;101433.84;5064413;28;20500;-84
2023/03/20 08:45:05;;;;;;;61.10;45.20;;;;;;;13.54;100.00;101430.56;5062704;28;20048;-83
2023/03/20 08:47:32;;;;;;;63.92;49.10;;;;;;;14.21;100.00;101431.97;5055643;28;20489;-83
2023/03/20 08:49:58;;;;;;;64.78;48.67;;;;;;;14.03;100.00;101423.03;5065232;28;20053;-82
2023/03/20 08:52:26;;;;;;;67.93;49.97;;;;;;;14.86;100.00;101420.34;5065317;28;20056;-83
2023/03/20 08:54:53;;;;;;;68.50;51.42;;;;;;;14.64;100.00;101417.19;5064031;28;20045;-83
2023/03/20 08:57:20;;;;;;;63.22;44.25;;;;;;;14.75;100.00;101416.50;5063635;28;20103;-83
2023/03/20 08:59:47;;;;;;;52.95;40.53;;;;;;;15.62;100.00;101419.25;5065082;28;20049;-83
2023/03/20 09:02:15;;;;;;;52.50;39.28;;;;;;;15.57;100.00;101417.22;5063344;28;20029;-83
2023/03/20 09:04:42;;;;;;;46.60;37.55;;;;;;;15.43;100.00;101417.56;5063855;28;20052;-83
2023/03/20 09:07:08;;;;;;;43.17;35.00;;;;;;;15.40;100.00;101410.81;5062139;28;20049;-83
2023/03/20 09:09:35;;;;;;;40.08;34.53;;;;;;;16.02;100.00;101416.16;5065104;28;20103;-83
2023/03/20 09:12:02;;;;;;;41.35;37.05;;;;;;;16.26;100.00;101415.22;5064508;28;20053;-83
2023/03/20 09:14:30;;;;;;;43.45;34.45;;;;;;;16.12;100.00;101411.06;5060430;28;20045;-83
2023/03/20 09:16:57;;;;;;;40.75;34.42;;;;;;;16.12;100.00;101412.94;5066739;28;20032;-83
2023/03/20 09:19:25;;;;;;;35.42;31.80;;;;;;;17.14;100.00;101397.59;5062534;28;20060;-83
2023/03/20 09:21:52;;;;;;;37.35;33.35;;;;;;;16.66;100.00;101393.19;5062730;28;20518;-82
2023/03/20 09:24:18;;;;;;;37.72;33.67;;;;;;;17.15;100.00;101385.00;5062259;28;20114;-83
2023/03/20 09:26:45;;;;;;;42.58;35.25;;;;;;;16.23;100.00;101402.25;5063160;28;20049;-83
2023/03/20 09:29:12;;;;;;;37.85;34.00;;;;;;;16.52;100.00;101390.94;5061295;28;20046;-83
2023/03/20 09:31:39;;;;;;;35.55;31.90;;;;;;;17.03;100.00;101387.66;5059278;28;20053;-83
2023/03/20 09:34:05;;;;;;;31.73;28.55;;;;;;;16.81;94.19;101379.38;5064767;28;20049;-83
2023/03/20 09:36:34;;;;;;;32.97;29.25;;;;;;;16.24;100.00;101390.50;5065252;28;20048;-83
2023/03/20 09:39:01;;;;;;;34.38;30.38;;;;;;;16.23;100.00;101388.03;5064767;28;20061;-83
2023/03/20 09:41:35;;;;;;;32.13;28.83;;;;;;;16.64;99.76;101373.84;5062981;28;20060;-83
2023/03/20 09:44:15;;;;;;;37.58;31.50;;;;;;;16.71;96.52;101363.81;5062588;28;20116;-83
2023/03/20 09:46:57;;;;;;;37.55;33.38;;;;;;;17.30;98.71;101376.47;5062153;28;20045;-84
2023/03/20 09:49:34;;;;;;;33.97;30.65;;;;;;;17.21;100.00;101367.13;5063106;28;20087;-83
2023/03/20 09:52:11;;;;;;;34.83;31.23;;;;;;;17.30;100.00;101366.53;5063162;28;20053;-83
2023/03/20 09:54:42;;;;;;;34.78;31.30;;;;;;;17.48;96.38;101354.84;5062681;28;20110;-83
2023/03/20 09:57:19;;;;;;;35.97;32.20;;;;;;;17.01;94.38;101365.63;5059955;28;20054;-84
2023/03/20 09:59:47;;;;;;;31.65;28.40;;;;;;;16.65;100.00;101350.53;5065222;28;20044;-82
2023/03/20 10:02:23;;;;;;;30.58;27.55;;;;;;;17.52;100.00;101355.19;5062153;28;20053;-83
2023/03/20 10:04:53;;;;;;;31.63;28.52;;;;;;;17.20;95.06;101355.59;5066930;28;20057;-83
2023/03/20 10:07:22;;;;;;;31.27;28.13;;;;;;;17.44;95.20;101347.53;5063392;28;20057;-83
2023/03/20 10:09:49;;;;;;;32.08;29.08;;;;;;;17.51;99.90;101346.31;5062260;28;20041;-83
2023/03/20 10:12:42;;;;;;;31.05;28.05;;;;;;;16.92;94.79;101345.56;5063793;28;20076;-83
2023/03/20 10:15:20;;;;;;;31.00;27.90;;;;;;;16.76;100.00;101336.31;5062734;28;20029;-83
2023/03/20 10:18:00;;;;;;;30.60;27.45;;;;;;;17.28;93.48;101335.63;5062529;28;20052;-83
2023/03/20 10:20:33;;;;;;;31.23;28.27;;;;;;;18.09;100.00;101344.53;5062297;28;20049;-84
2023/03/20 10:23:06;;;;;;;;;;;;;;;19.34;100.00;101342.53;5062890;28;20059;-83
2023/03/20 10:25:36;;;;;;;29.90;27.23;;;;;;;15.51;77.67;101340.47;5068006;28;19921;-83
2023/03/20 10:28:11;;;;;;;29.33;26.60;;;;;;;15.12;100.00;101342.53;5068462;28;20051;-83
2023/03/20 10:31:01;;;;;;;29.33;26.80;;;;;;;19.06;87.21;101331.88;5067745;28;20048;-82
2023/03/20 10:33:42;;;;;;;29.63;26.90;;;;;;;18.11;88.22;101337.06;5064097;28;20055;-83
2023/03/20 10:36:23;;;;;;;31.08;28.08;;;;;;;18.48;75.59;101331.25;5069725;28;20053;-83
2023/03/20 10:39:00;;;;;;;30.23;27.38;;;;;;;16.82;71.86;101335.38;5073301;28;20056;-83
2023/03/20 10:41:33;;;;;;;32.00;29.20;;;;;;;17.33;85.91;101331.19;5071002;28;20049;-83
2023/03/20 10:44:01;;;;;;;;;;;;;;;18.75;78.69;101326.06;5071197;28;20155;-83
2023/03/20 10:46:31;;;;;;;29.20;26.60;;;;;;;18.92;83.83;101328.75;5069115;28;19944;-83
2023/03/20 10:49:03;;;;;;;31.27;28.52;;;;;;;17.49;68.74;101321.59;5068698;28;20048;-83
2023/03/20 10:51:40;;;;;;;32.15;29.13;;;;;;;15.50;76.96;101320.09;5068992;28;20121;-83
2023/03/20 10:54:19;;;;;;;32.80;29.77;;;;;;;17.15;97.01;101318.72;5067631;28;20037;-83
2023/03/20 10:56:48;;;;;;;29.50;26.92;;;;;;;19.44;85.52;101309.53;5064797;28;20056;-83
2023/03/20 10:59:22;;;;;;;30.58;28.08;;;;;;;19.26;77.35;101297.16;5066542;28;20045;-83
2023/03/20 11:01:49;;;;;;;27.33;24.95;;;;;;;20.24;60.88;101297.22;5067327;28;20045;-83
2023/03/20 11:04:15;;;;;;;28.05;25.95;;;;;;;20.95;53.68;101296.13;5065125;28;20102;-84
2023/03/20 11:06:47;;;;;;;29.00;26.73;;;;;;;20.54;54.16;101295.84;5061396;28;20044;-83
2023/03/20 11:09:20;;;;;;;31.75;29.05;;;;;;;19.91;64.43;101295.53;5071983;28;20059;-83
2023/03/20 11:11:48;;;;;;;30.00;27.60;;;;;;;18.65;61.46;101288.22;5070677;28;20057;-83
2023/03/20 11:14:18;;;;;;;30.17;27.75;;;;;;;19.17;57.96;101290.59;5073111;28;20060;-83
2023/03/20 11:16:48;;;;;;;29.90;27.35;;;;;;;19.80;59.91;101274.94;5069022;28;20045;-83
2023/03/20 11:19:16;;;;;;;30.50;28.05;;;;;;;18.93;65.35;101271.16;5069415;28;20049;-83
2023/03/20 11:21:48;;;;;;;30.40;27.90;;;;;;;19.22;57.75;101278.00;5069836;28;20041;-84